Time;durP1;ratioP1;P1;durP2;ratioP2;P2;SDS_P1;SDS_P2;PMS_P1;PMS_P2;Temp;Humidity;BMP_temperature;BMP_pressure;BME280_temperature;BME280_humidity;BME280_pressure;Samples;Min_cycle;Max_cycle;Signal;HPM_P1;HPM_P2
2023/03/12 00:02:35;;;;;;;5.20;1.75;;;13.90;67.80;;;;;;3924607;30;20113;-72
2023/03/12 00:05:16;;;;;;;3.53;1.92;;;13.90;67.80;;;;;;3911538;30;20044;-72
2023/03/12 00:07:58;;;;;;;4.50;2.30;;;14.00;68.00;;;;;;3919729;30;20109;-72
2023/03/12 00:10:41;;;;;;;3.22;1.90;;;14.00;67.80;;;;;;3928650;30;20063;-72
2023/03/12 00:13:23;;;;;;;4.82;2.13;;;14.10;67.50;;;;;;3928515;30;20182;-69
2023/03/12 00:16:06;;;;;;;2.17;2.08;;;14.20;67.20;;;;;;3928818;30;20063;-69
2023/03/12 00:18:48;;;;;;;4.03;1.90;;;14.20;67.30;;;;;;3921428;30;20121;-69
2023/03/12 00:21:29;;;;;;;2.65;1.98;;;14.30;67.00;;;;;;3914196;30;20055;-69
2023/03/12 00:24:10;;;;;;;3.42;2.00;;;14.30;66.50;;;;;;3913393;30;20110;-69
2023/03/12 00:26:52;;;;;;;3.57;1.90;;;14.40;66.40;;;;;;3914234;30;20068;-69
2023/03/12 00:29:33;;;;;;;2.97;2.17;;;14.40;66.10;;;;;;3919234;30;20742;-69
2023/03/12 00:32:14;;;;;;;3.13;1.70;;;14.50;66.10;;;;;;3917231;30;20075;-69
2023/03/12 00:34:56;;;;;;;2.75;1.75;;;14.50;65.80;;;;;;3928426;30;20083;-69
2023/03/12 00:37:39;;;;;;;4.72;1.83;;;14.50;65.70;;;;;;3927831;30;20603;-69
2023/03/12 00:40:20;;;;;;;4.93;2.28;;;14.40;65.50;;;;;;3928143;30;20561;-69
2023/03/12 00:43:02;;;;;;;4.07;2.22;;;14.50;65.80;;;;;;3917437;30;20066;-69
2023/03/12 00:45:44;;;;;;;3.05;2.00;;;14.50;65.60;;;;;;3928341;30;20194;-69
2023/03/12 00:48:25;;;;;;;4.38;2.58;;;14.50;65.40;;;;;;3916326;30;20408;-69
2023/03/12 00:51:07;;;;;;;2.05;1.70;;;14.50;65.40;;;;;;3913404;30;20118;-69
2023/03/12 00:53:49;;;;;;;4.38;1.98;;;14.50;65.20;;;;;;3903463;30;20129;-69
2023/03/12 00:56:30;;;;;;;3.15;2.42;;;14.50;65.60;;;;;;3917389;30;20060;-69
2023/03/12 00:59:13;;;;;;;2.75;1.92;;;14.50;66.80;;;;;;3899552;30;20047;-69
2023/03/12 01:01:54;;;;;;;2.92;1.95;;;14.60;65.90;;;;;;3902616;30;20628;-69
2023/03/12 01:04:35;;;;;;;2.17;1.63;;;14.70;65.60;;;;;;3902522;30;20056;-69
2023/03/12 01:07:16;;;;;;;5.03;2.25;;;14.70;65.40;;;;;;3904010;30;20094;-69
2023/03/12 01:09:57;;;;;;;2.33;1.73;;;14.80;65.30;;;;;;3921137;30;20196;-69
2023/03/12 01:12:38;;;;;;;4.87;2.00;;;14.80;64.90;;;;;;3916360;30;20055;-69
2023/03/12 01:15:20;;;;;;;2.47;2.10;;;14.80;65.70;;;;;;3927791;30;20786;-69
2023/03/12 01:18:01;;;;;;;2.85;2.33;;;14.90;64.80;;;;;;3927518;30;20726;-69
2023/03/12 01:20:42;;;;;;;1.85;1.75;;;14.90;65.40;;;;;;3902473;30;20524;-69
2023/03/12 01:23:23;;;;;;;3.58;2.33;;;15.00;64.30;;;;;;3927426;30;20398;-69
2023/03/12 01:26:04;;;;;;;2.65;2.13;;;15.00;64.30;;;;;;3926266;30;20137;-69
2023/03/12 01:28:45;;;;;;;2.50;2.10;;;15.10;64.10;;;;;;3909477;30;20421;-69
2023/03/12 01:31:28;;;;;;;3.63;2.10;;;15.10;63.90;;;;;;3927432;30;20074;-68
2023/03/12 01:34:11;;;;;;;2.40;2.10;;;15.10;63.70;;;;;;3927339;30;20133;-69
2023/03/12 01:36:53;;;;;;;3.88;1.92;;;15.10;63.80;;;;;;3905989;30;20141;-69
2023/03/12 01:39:35;;;;;;;2.88;2.10;;;15.10;63.90;;;;;;3906567;30;20062;-69
2023/03/12 01:42:15;;;;;;;2.43;2.17;;;15.20;63.70;;;;;;3927636;30;20206;-69
2023/03/12 01:44:58;;;;;;;7.60;2.30;;;15.20;63.40;;;;;;3901957;30;20059;-69
2023/03/12 01:47:41;;;;;;;4.90;2.30;;;15.20;63.40;;;;;;3911958;30;20444;-69
2023/03/12 01:50:23;;;;;;;4.72;2.13;;;15.20;63.40;;;;;;3901751;30;20059;-69
2023/03/12 01:53:05;;;;;;;4.13;2.30;;;15.30;63.30;;;;;;3912648;30;20648;-69
2023/03/12 01:55:46;;;;;;;5.88;2.95;;;15.30;63.30;;;;;;3924682;30;20313;-69
2023/03/12 01:58:31;;;;;;;3.60;2.53;;;15.30;63.30;;;;;;3916612;30;20071;-69
2023/03/12 02:01:14;;;;;;;2.25;2.05;;;15.30;63.20;;;;;;3926261;30;20078;-69
2023/03/12 02:03:59;;;;;;;4.40;2.60;;;15.30;63.00;;;;;;3915842;30;20059;-69
2023/03/12 02:06:48;;;;;;;2.90;2.60;;;15.30;62.70;;;;;;3916252;30;20059;-68
2023/03/12 02:09:30;;;;;;;4.10;2.17;;;15.30;62.40;;;;;;3916324;30;20520;-68
2023/03/12 02:12:11;;;;;;;3.13;2.50;;;15.30;62.70;;;;;;3926848;30;20409;-69
2023/03/12 02:14:53;;;;;;;5.63;2.42;;;15.20;62.70;;;;;;3915851;30;20055;-68
2023/03/12 02:17:35;;;;;;;2.35;2.20;;;15.10;62.80;;;;;;3914636;30;20194;-69
2023/03/12 02:20:23;;;;;;;2.33;2.13;;;15.10;63.40;;;;;;3913081;30;20109;-69
2023/03/12 02:23:09;;;;;;;5.63;2.88;;;15.10;63.30;;;;;;3927121;30;20054;-69
2023/03/12 02:25:53;;;;;;;4.55;2.30;;;15.10;63.10;;;;;;3915734;30;20051;-69
2023/03/12 02:28:41;;;;;;;2.33;2.13;;;15.10;63.10;;;;;;3926840;30;20117;-68
2023/03/12 02:31:26;;;;;;;2.42;2.25;;;15.00;63.00;;;;;;3904932;30;20055;-68
2023/03/12 02:34:07;;;;;;;4.90;2.40;;;15.00;62.80;;;;;;3926263;30;20145;-69
2023/03/12 02:36:49;;;;;;;5.75;2.42;;;14.90;62.90;;;;;;3915575;30;20066;-69
2023/03/12 02:39:30;;;;;;;;;;;14.90;63.50;;;;;;3901799;30;20059;-69
2023/03/12 02:42:13;;;;;;;2.45;2.22;;;14.90;64.20;;;;;;3912422;30;19933;-69
2023/03/12 02:44:54;;;;;;;2.30;2.03;;;14.90;64.40;;;;;;3905526;30;20567;-68
2023/03/12 02:47:35;;;;;;;3.75;2.35;;;15.00;63.90;;;;;;3915824;30;20065;-69
2023/03/12 02:50:16;;;;;;;3.28;2.15;;;15.10;63.40;;;;;;3922141;30;20078;-69
2023/03/12 02:52:57;;;;;;;2.55;2.15;;;15.20;63.50;;;;;;3915305;30;20103;-69
2023/03/12 02:55:38;;;;;;;4.63;1.93;;;15.20;63.30;;;;;;3914665;30;20063;-69
2023/03/12 02:58:21;;;;;;;5.55;1.95;;;15.30;63.10;;;;;;3914670;30;20078;-69
2023/03/12 03:01:02;;;;;;;2.50;1.70;;;15.30;62.70;;;;;;3914693;30;20082;-69
2023/03/12 03:03:44;;;;;;;2.65;1.75;;;15.30;62.70;;;;;;3919516;30;20056;-69
2023/03/12 03:06:25;;;;;;;2.25;1.40;;;15.40;62.80;;;;;;3915253;30;20066;-69
2023/03/12 03:09:07;;;;;;;1.85;1.73;;;15.50;62.60;;;;;;3906111;30;20067;-69
2023/03/12 03:11:48;;;;;;;3.15;1.65;;;15.50;62.30;;;;;;3915536;30;20065;-69
2023/03/12 03:14:30;;;;;;;4.18;1.80;;;15.50;62.20;;;;;;3915427;30;20144;-69
2023/03/12 03:17:11;;;;;;;2.05;1.60;;;15.50;61.90;;;;;;3915459;30;20536;-69
2023/03/12 03:19:52;;;;;;;3.00;1.67;;;15.60;61.90;;;;;;3915314;30;20190;-69
2023/03/12 03:22:33;;;;;;;2.90;1.92;;;15.50;61.80;;;;;;3926579;30;20058;-69
2023/03/12 03:25:14;;;;;;;2.72;2.30;;;15.50;62.00;;;;;;3901199;30;20059;-69
2023/03/12 03:27:55;;;;;;;;;;;15.50;62.10;;;;;;3925321;30;20484;-69
2023/03/12 03:30:37;;;;;;;3.67;1.85;;;15.60;62.20;;;;;;3915680;30;20007;-69
2023/03/12 03:33:20;;;;;;;3.40;1.65;;;15.50;62.10;;;;;;3915257;30;20063;-69
2023/03/12 03:36:02;;;;;;;2.28;1.88;;;15.60;61.90;;;;;;3915421;30;20055;-69
2023/03/12 03:38:48;;;;;;;2.53;1.90;;;15.60;61.70;;;;;;3900996;30;20191;-69
2023/03/12 03:41:31;;;;;;;3.00;2.00;;;15.50;61.70;;;;;;3915543;30;20051;-69
2023/03/12 03:44:12;;;;;;;2.20;1.65;;;15.50;61.70;;;;;;3914860;30;20067;-68
2023/03/12 03:46:55;;;;;;;4.15;2.20;;;15.50;61.90;;;;;;3923267;30;20159;-68
2023/03/12 03:49:36;;;;;;;2.38;1.98;;;15.60;61.90;;;;;;3907545;30;20059;-69
2023/03/12 03:52:17;;;;;;;4.45;1.83;;;15.60;61.60;;;;;;3929017;30;20051;-69
2023/03/12 03:54:58;;;;;;;1.98;1.88;;;15.60;61.50;;;;;;3918018;30;20061;-70
2023/03/12 03:57:39;;;;;;;2.00;1.80;;;15.60;61.40;;;;;;3909425;30;20067;-71
2023/03/12 04:00:21;;;;;;;2.30;2.10;;;15.50;61.20;;;;;;3902985;30;20145;-69
2023/03/12 04:03:06;;;;;;;1.65;1.50;;;15.50;61.40;;;;;;3914069;30;20117;-69
2023/03/12 04:05:53;;;;;;;3.47;2.30;;;15.50;61.30;;;;;;3896583;30;20059;-70
2023/03/12 04:08:36;;;;;;;2.60;1.60;;;15.40;61.30;;;;;;3907112;30;20051;-68
2023/03/12 04:11:21;;;;;;;3.83;1.75;;;15.30;61.30;;;;;;3917518;30;20118;-69
2023/03/12 04:14:02;;;;;;;1.73;1.40;;;15.20;61.50;;;;;;3916161;30;20109;-69
2023/03/12 04:16:45;;;;;;;2.33;1.73;;;15.20;62.00;;;;;;3917294;30;20079;-69
2023/03/12 04:19:27;;;;;;;2.65;1.92;;;15.10;62.30;;;;;;3906253;30;20051;-69
2023/03/12 04:22:08;;;;;;;3.65;1.95;;;15.10;62.40;;;;;;3917375;30;20512;-69
2023/03/12 04:24:50;;;;;;;3.25;1.88;;;15.20;62.50;;;;;;3917348;30;20063;-69
2023/03/12 04:27:31;;;;;;;3.70;1.83;;;15.30;62.30;;;;;;3917162;30;20064;-69
2023/03/12 04:30:13;;;;;;;2.75;1.98;;;15.30;62.30;;;;;;3917027;30;20112;-69
2023/03/12 04:32:54;;;;;;;4.40;2.13;;;15.30;62.10;;;;;;3902499;30;20417;-69
2023/03/12 04:35:36;;;;;;;7.20;2.20;;;15.40;62.00;;;;;;3913348;30;20079;-69
2023/03/12 04:38:17;;;;;;;4.35;2.15;;;15.40;61.60;;;;;;3902665;30;20090;-69
2023/03/12 04:40:59;;;;;;;4.07;1.98;;;15.50;61.50;;;;;;3905100;30;20083;-69
2023/03/12 04:43:40;;;;;;;3.88;2.33;;;15.50;61.30;;;;;;3928271;30;20082;-68
2023/03/12 04:46:22;;;;;;;3.38;2.30;;;15.40;61.50;;;;;;3917180;30;20055;-68
2023/03/12 04:49:03;;;;;;;2.33;2.15;;;15.40;61.60;;;;;;3907610;30;20420;-68
2023/03/12 04:51:48;;;;;;;5.85;2.53;;;15.30;61.60;;;;;;3896692;30;20055;-68
2023/03/12 04:54:32;;;;;;;3.17;2.80;;;15.30;62.00;;;;;;3911940;30;20110;-69
2023/03/12 04:57:13;;;;;;;2.83;2.50;;;15.30;62.20;;;;;;3902045;30;20054;-69
2023/03/12 04:59:55;;;;;;;4.18;2.67;;;15.30;62.30;;;;;;3907774;30;20059;-68
2023/03/12 05:02:37;;;;;;;5.32;3.00;;;15.30;62.20;;;;;;3917171;30;20126;-69
2023/03/12 05:05:18;;;;;;;3.03;2.70;;;15.30;62.10;;;;;;3926775;30;20512;-69
2023/03/12 05:08:00;;;;;;;2.80;2.60;;;15.30;62.00;;;;;;3917110;30;20071;-69
2023/03/12 05:10:44;;;;;;;3.95;2.78;;;15.30;61.90;;;;;;3895522;30;20121;-69
2023/03/12 05:13:27;;;;;;;4.07;2.58;;;15.30;62.00;;;;;;3902499;30;20109;-69
2023/03/12 05:16:11;;;;;;;3.75;2.72;;;15.30;61.90;;;;;;3898891;30;20521;-69
2023/03/12 05:18:51;;;;;;;4.72;2.53;;;15.30;61.90;;;;;;3916643;30;20213;-69
2023/03/12 05:21:34;;;;;;;6.32;2.58;;;15.30;61.80;;;;;;3909742;30;20052;-68
2023/03/12 05:24:17;;;;;;;4.32;2.80;;;15.30;61.60;;;;;;3913252;30;20067;-68
2023/03/12 05:26:59;;;;;;;5.10;3.28;;;15.40;62.60;;;;;;3897884;30;20067;-68
2023/03/12 05:29:40;;;;;;;3.83;3.40;;;15.40;61.50;;;;;;3902254;30;20063;-69
2023/03/12 05:32:21;;;;;;;4.10;2.60;;;15.50;61.30;;;;;;3902033;30;20052;-69
2023/03/12 05:35:03;;;;;;;5.50;3.28;;;15.50;61.00;;;;;;3903682;30;20063;-69
2023/03/12 05:37:44;;;;;;;;;;;15.50;60.90;;;;;;3910151;30;20055;-69
2023/03/12 05:40:27;;;;;;;9.43;3.35;;;15.60;61.10;;;;;;3891950;30;20413;-70
2023/03/12 05:43:08;;;;;;;5.35;2.83;;;15.60;61.10;;;;;;3909551;30;20098;-73
2023/03/12 05:45:49;;;;;;;4.57;3.00;;;15.70;60.90;;;;;;3902154;30;20063;-73
2023/03/12 05:48:31;;;;;;;3.33;3.08;;;15.70;60.70;;;;;;3915534;30;20059;-73
2023/03/12 05:51:13;;;;;;;6.57;2.92;;;15.70;60.50;;;;;;3915974;30;20182;-73
2023/03/12 05:53:54;;;;;;;5.00;3.40;;;15.70;60.30;;;;;;3896506;30;20056;-72
2023/03/12 05:56:38;;;;;;;3.78;3.28;;;15.70;60.50;;;;;;3926818;30;20133;-73
2023/03/12 05:59:20;;;;;;;5.43;3.25;;;15.80;60.30;;;;;;3867918;30;20115;-73
2023/03/12 06:02:02;;;;;;;5.20;3.20;;;15.80;60.10;;;;;;3853790;30;20096;-72
2023/03/12 06:04:43;;;;;;;;;;;15.80;60.90;;;;;;3858994;30;20064;-72
2023/03/12 06:07:25;;;;;;;5.05;3.22;;;15.80;60.10;;;;;;3879655;30;19938;-73
2023/03/12 06:10:07;;;;;;;4.35;3.03;;;15.80;60.30;;;;;;3857660;30;20064;-73
2023/03/12 06:12:50;;;;;;;4.20;3.47;;;15.70;60.10;;;;;;3867336;30;20068;-72
2023/03/12 06:15:31;;;;;;;5.85;3.47;;;15.70;60.20;;;;;;3855673;30;20057;-72
2023/03/12 06:18:12;;;;;;;4.78;3.15;;;15.70;60.30;;;;;;3871387;30;20088;-73
2023/03/12 06:20:53;;;;;;;4.72;3.22;;;15.70;60.20;;;;;;3871031;30;20170;-73
2023/03/12 06:23:35;;;;;;;5.28;3.50;;;15.70;60.00;;;;;;3871624;30;20131;-69
2023/03/12 06:26:16;;;;;;;8.23;4.00;;;15.70;60.00;;;;;;3880769;30;20549;-69
2023/03/12 06:28:59;;;;;;;5.43;4.03;;;15.70;60.20;;;;;;3871390;30;20056;-69
2023/03/12 06:31:40;;;;;;;4.00;3.53;;;15.70;60.10;;;;;;3925784;30;20058;-69
2023/03/12 06:34:22;;;;;;;4.30;3.70;;;15.70;60.00;;;;;;3915628;30;20221;-69
2023/03/12 06:37:02;;;;;;;4.50;3.80;;;15.70;59.90;;;;;;3923006;30;20067;-69
2023/03/12 06:39:43;;;;;;;5.88;3.83;;;15.70;59.80;;;;;;3927007;30;20055;-69
2023/03/12 06:42:25;;;;;;;5.75;4.18;;;15.70;60.10;;;;;;3915689;30;20133;-69
2023/03/12 06:45:09;;;;;;;7.10;3.85;;;15.70;60.40;;;;;;3915969;30;20549;-65
2023/03/12 06:47:49;;;;;;;8.70;4.15;;;15.80;60.60;;;;;;3926400;30;20189;-66
2023/03/12 06:50:30;;;;;;;6.30;4.15;;;15.80;60.10;;;;;;3926477;30;20143;-69
2023/03/12 06:53:11;;;;;;;4.43;4.03;;;15.80;59.90;;;;;;3909555;30;20074;-69
2023/03/12 06:55:52;;;;;;;6.30;4.10;;;15.80;59.90;;;;;;3913313;30;20063;-71
2023/03/12 06:58:32;;;;;;;6.82;4.45;;;15.80;59.90;;;;;;3912064;30;20055;-71
2023/03/12 07:01:16;;;;;;;5.63;4.68;;;15.80;60.00;;;;;;3914473;30;20109;-70
2023/03/12 07:03:57;;;;;;;6.15;4.30;;;15.80;60.00;;;;;;3915921;30;20059;-70
2023/03/12 07:06:37;;;;;;;7.20;3.92;;;15.70;59.90;;;;;;3901183;30;20078;-70
2023/03/12 07:09:19;;;;;;;5.27;4.27;;;15.70;59.90;;;;;;3915776;30;20086;-71
2023/03/12 07:12:00;;;;;;;5.20;4.32;;;15.80;60.90;;;;;;3917339;30;20504;-71
2023/03/12 07:14:43;;;;;;;8.25;4.28;;;15.80;60.10;;;;;;3926502;30;20071;-71
2023/03/12 07:17:26;;;;;;;8.07;4.88;;;15.80;60.10;;;;;;3912677;30;20129;-70
2023/03/12 07:20:07;;;;;;;9.10;4.82;;;15.80;60.10;;;;;;3923656;30;20058;-71
2023/03/12 07:22:48;;;;;;;;;;;15.80;60.10;;;;;;3929588;30;20166;-71
2023/03/12 07:25:29;;;;;;;5.57;4.50;;;15.80;60.40;;;;;;3918193;30;19949;-69
2023/03/12 07:28:11;;;;;;;6.20;4.85;;;15.80;60.50;;;;;;3929208;30;20047;-69
2023/03/12 07:30:51;;;;;;;;;;;15.80;60.60;;;;;;3897623;30;20063;-68
2023/03/12 07:33:34;;;;;;;5.25;4.38;;;15.90;60.60;;;;;;3927948;30;19933;-68
2023/03/12 07:36:15;;;;;;;6.65;4.00;;;15.90;60.50;;;;;;3928960;30;20062;-69
2023/03/12 07:38:56;;;;;;;7.07;4.28;;;15.90;61.20;;;;;;3927223;30;20067;-68
2023/03/12 07:41:37;;;;;;;4.47;3.58;;;15.90;60.30;;;;;;3928256;30;20059;-69
2023/03/12 07:44:18;;;;;;;5.50;4.35;;;15.90;60.00;;;;;;3917946;30;20139;-68
2023/03/12 07:47:00;;;;;;;9.65;3.95;;;16.00;59.70;;;;;;3928436;30;20063;-69
2023/03/12 07:49:57;;;;;;;6.07;3.60;;;16.10;59.40;;;;;;3906938;30;20095;-69
2023/03/12 07:52:38;;;;;;;9.25;4.30;;;16.10;59.10;;;;;;3917976;30;20137;-69
2023/03/12 07:55:20;;;;;;;10.18;4.47;;;16.10;59.00;;;;;;3913340;30;20071;-69
2023/03/12 07:58:01;;;;;;;5.10;3.47;;;16.10;59.10;;;;;;3902783;30;20110;-69
2023/03/12 08:00:41;;;;;;;6.10;4.27;;;16.10;59.00;;;;;;3920144;30;20052;-69
2023/03/12 08:03:23;;;;;;;6.50;4.05;;;16.10;59.60;;;;;;3917163;30;20304;-70
2023/03/12 08:06:06;;;;;;;3.97;3.60;;;16.10;58.50;;;;;;3928747;30;20620;-69
2023/03/12 08:08:47;;;;;;;6.43;4.40;;;16.00;58.20;;;;;;3921743;30;20051;-69
2023/03/12 08:11:29;;;;;;;;;;;16.00;58.30;;;;;;3922034;30;20566;-69
2023/03/12 08:14:10;;;;;;;;;;;15.90;58.40;;;;;;3913628;30;19965;-69
2023/03/12 08:16:52;;;;;;;4.20;3.80;;;15.80;58.70;;;;;;3913451;30;19934;-70
2023/03/12 08:19:33;;;;;;;4.38;3.92;;;15.80;59.00;;;;;;3925489;30;20101;-69
2023/03/12 08:22:15;;;;;;;7.32;4.93;;;15.70;59.10;;;;;;3926768;30;20137;-69
2023/03/12 08:24:56;;;;;;;5.63;3.72;;;15.70;59.40;;;;;;3925016;30;20059;-69
2023/03/12 08:27:37;;;;;;;5.03;3.85;;;15.60;59.40;;;;;;3905901;30;20059;-70
2023/03/12 08:30:19;;;;;;;5.60;4.38;;;15.60;59.60;;;;;;3913195;30;20190;-69
2023/03/12 08:32:59;;;;;;;6.80;4.93;;;15.50;59.80;;;;;;3913820;30;20067;-69
2023/03/12 08:35:40;;;;;;;6.30;3.92;;;15.50;59.90;;;;;;3906575;30;20067;-70
2023/03/12 08:38:23;;;;;;;5.25;4.35;;;15.40;59.90;;;;;;3902096;30;20060;-70
2023/03/12 08:41:04;;;;;;;4.28;3.60;;;15.40;60.00;;;;;;3907783;30;20055;-70
2023/03/12 08:43:45;;;;;;;7.18;4.20;;;15.30;60.00;;;;;;3916641;30;20125;-69
2023/03/12 08:46:26;;;;;;;;;;;15.30;60.10;;;;;;3928549;30;20097;-70
2023/03/12 08:49:07;;;;;;;6.35;4.20;;;15.30;60.70;;;;;;3907080;30;20390;-70
2023/03/12 08:51:48;;;;;;;5.65;3.75;;;15.20;60.70;;;;;;3927509;30;20058;-69
2023/03/12 08:54:30;;;;;;;5.40;4.13;;;15.20;60.60;;;;;;3916533;30;20524;-70
2023/03/12 08:57:12;;;;;;;5.97;3.80;;;15.20;60.60;;;;;;3908491;30;20551;-70
2023/03/12 08:59:53;;;;;;;3.70;3.40;;;15.20;60.30;;;;;;3912992;30;20059;-70
2023/03/12 09:02:34;;;;;;;4.00;3.30;;;15.30;59.90;;;;;;3918816;30;20409;-69
2023/03/12 09:05:14;;;;;;;5.53;3.63;;;15.30;59.60;;;;;;3909195;30;20056;-69
2023/03/12 09:07:56;;;;;;;5.32;4.22;;;15.30;59.60;;;;;;3907760;30;20428;-70
2023/03/12 09:10:39;;;;;;;5.28;3.63;;;15.20;59.70;;;;;;3927707;30;20055;-70
2023/03/12 09:13:20;;;;;;;7.50;3.75;;;15.30;59.60;;;;;;3906148;30;20075;-69
2023/03/12 09:16:02;;;;;;;4.53;3.92;;;15.30;59.40;;;;;;3923332;30;20490;-69
2023/03/12 09:18:44;;;;;;;3.40;3.10;;;15.30;59.10;;;;;;3926379;30;20512;-70
2023/03/12 09:21:25;;;;;;;4.70;4.30;;;15.40;59.10;;;;;;3916325;30;20602;-70
2023/03/12 09:24:06;;;;;;;6.22;4.60;;;15.40;59.10;;;;;;3923883;30;20212;-70
2023/03/12 09:26:49;;;;;;;4.88;3.88;;;15.50;59.10;;;;;;3901844;30;20066;-72
2023/03/12 09:29:30;;;;;;;8.98;4.50;;;15.50;58.80;;;;;;3906375;30;20667;-70
2023/03/12 09:32:14;;;;;;;5.72;4.10;;;15.50;58.80;;;;;;3912465;30;20154;-70
2023/03/12 09:34:55;;;;;;;4.20;3.83;;;15.60;58.80;;;;;;3912683;30;20765;-70
2023/03/12 09:37:36;;;;;;;7.78;4.35;;;15.60;58.90;;;;;;3913866;30;20047;-70
2023/03/12 09:40:20;;;;;;;7.22;4.70;;;15.60;58.70;;;;;;3915999;30;20125;-70
2023/03/12 09:43:08;;;;;;;4.82;4.32;;;15.50;58.60;;;;;;3922775;30;20067;-70
2023/03/12 09:45:50;;;;;;;4.78;4.22;;;15.50;58.70;;;;;;3915670;30;20063;-70
2023/03/12 09:48:33;;;;;;;5.43;4.63;;;15.50;58.90;;;;;;3915826;30;20516;-69
2023/03/12 09:51:20;;;;;;;4.68;4.25;;;15.80;58.60;;;;;;3926533;30;20050;-70
2023/03/12 09:54:03;;;;;;;5.13;3.65;;;16.10;57.90;;;;;;3915089;30;20066;-69
2023/03/12 09:56:44;;;;;;;5.55;4.40;;;16.60;56.70;;;;;;3915176;30;20068;-70
2023/03/12 09:59:26;;;;;;;3.47;3.20;;;17.00;55.80;;;;;;3905226;30;20047;-70
2023/03/12 10:02:24;;;;;;;4.35;3.90;;;17.50;54.60;;;;;;3913521;30;20071;-69
2023/03/12 10:05:08;;;;;;;4.20;3.80;;;17.90;53.60;;;;;;3914577;30;20074;-70
2023/03/12 10:07:56;;;;;;;4.57;4.13;;;18.30;52.90;;;;;;3920645;30;20059;-70
2023/03/12 10:10:53;;;;;;;6.72;4.65;;;18.50;52.40;;;;;;3926990;30;20067;-69
2023/03/12 10:13:51;;;;;;;5.13;3.65;;;18.70;52.00;;;;;;3923148;30;20058;-69
2023/03/12 10:16:51;;;;;;;9.95;3.92;;;18.80;51.80;;;;;;3925961;30;20159;-70
2023/03/12 10:19:48;;;;;;;4.68;3.90;;;18.80;51.50;;;;;;3911700;30;20546;-70
2023/03/12 10:22:43;;;;;;;3.70;3.40;;;18.70;51.80;;;;;;3911708;30;20157;-70
2023/03/12 10:25:30;;;;;;;3.75;3.17;;;18.50;52.10;;;;;;3905336;30;20055;-70
2023/03/12 10:28:15;;;;;;;4.70;3.97;;;18.30;52.60;;;;;;3922357;30;20194;-70
2023/03/12 10:31:00;;;;;;;3.90;3.22;;;18.30;53.10;;;;;;3910153;30;20067;-70
2023/03/12 10:33:48;;;;;;;4.57;3.67;;;18.20;53.10;;;;;;3914970;30;20088;-70
2023/03/12 10:36:36;;;;;;;5.35;4.25;;;18.10;53.10;;;;;;3904728;30;20073;-70
2023/03/12 10:39:19;;;;;;;5.47;4.30;;;18.10;53.10;;;;;;3915357;30;20067;-74
2023/03/12 10:42:01;;;;;;;4.78;4.25;;;18.00;53.40;;;;;;3901360;30;20488;-70
2023/03/12 10:44:41;;;;;;;4.82;4.45;;;18.00;53.50;;;;;;3902859;30;20067;-70
2023/03/12 10:47:35;;;;;;;4.20;3.90;;;18.00;53.30;;;;;;3906335;30;20401;-70
2023/03/12 10:50:20;;;;;;;5.07;4.68;;;18.10;53.20;;;;;;3887359;30;20064;-69
2023/03/12 10:53:21;;;;;;;4.88;4.57;;;18.10;53.10;;;;;;3901279;30;20532;-70
2023/03/12 10:56:06;;;;;;;5.20;4.70;;;18.20;52.80;;;;;;3914239;30;20137;-69
2023/03/12 10:58:49;;;;;;;5.13;4.68;;;18.20;53.00;;;;;;3914641;30;20219;-70
2023/03/12 11:01:31;;;;;;;5.50;5.00;;;18.30;53.30;;;;;;3914670;30;20063;-70
2023/03/12 11:04:18;;;;;;;5.63;5.15;;;18.30;53.50;;;;;;3900145;30;20138;-70
2023/03/12 11:07:17;;;;;;;5.47;4.97;;;18.40;53.50;;;;;;3908518;30;20409;-69
2023/03/12 11:10:18;;;;;;;5.18;4.68;;;18.50;53.20;;;;;;3925492;30;20071;-70
2023/03/12 11:13:02;;;;;;;4.97;4.57;;;18.50;52.90;;;;;;3915051;30;20535;-74
2023/03/12 11:15:43;;;;;;;6.13;4.00;;;18.60;52.90;;;;;;3911965;30;20063;-73
2023/03/12 11:18:35;;;;;;;4.93;4.47;;;18.60;52.30;;;;;;3900476;30;20063;-74
2023/03/12 11:21:20;;;;;;;4.72;4.25;;;18.70;52.20;;;;;;3913009;30;20156;-74
2023/03/12 11:24:08;;;;;;;;;;;18.70;52.00;;;;;;3922431;30;20069;-74
2023/03/12 11:26:51;;;;;;;4.97;4.57;;;18.60;52.10;;;;;;3925251;30;19948;-74
2023/03/12 11:29:38;;;;;;;4.88;4.47;;;18.50;52.00;;;;;;3925418;30;20063;-70
2023/03/12 11:32:24;;;;;;;4.95;4.45;;;18.60;51.90;;;;;;3920995;30;20063;-70
2023/03/12 11:35:11;;;;;;;4.38;4.05;;;18.60;51.90;;;;;;3921189;30;20055;-70
2023/03/12 11:38:01;;;;;;;5.00;4.53;;;18.60;51.80;;;;;;3925417;30;20058;-70
2023/03/12 11:41:01;;;;;;;4.68;4.22;;;18.60;51.60;;;;;;3913918;30;20072;-70
2023/03/12 11:43:56;;;;;;;4.95;4.47;;;18.60;51.30;;;;;;3906168;30;20063;-75
2023/03/12 11:46:49;;;;;;;4.97;4.50;;;18.60;51.50;;;;;;3913277;30;20111;-73
2023/03/12 11:49:50;;;;;;;4.93;4.45;;;18.60;51.40;;;;;;3914260;30;20056;-74
2023/03/12 11:52:42;;;;;;;4.65;4.25;;;18.60;51.20;;;;;;3925341;30;20059;-70
2023/03/12 11:55:28;;;;;;;;;;;18.60;51.10;;;;;;3925342;30;20070;-69
2023/03/12 11:58:40;;;;;;;5.20;4.68;;;18.60;51.50;;;;;;3911176;30;19937;-70
2023/03/12 12:01:30;;;;;;;6.65;4.38;;;18.50;51.60;;;;;;3915072;30;20063;-70
2023/03/12 12:04:44;;;;;;;5.03;4.60;;;18.40;52.20;;;;;;3916877;30;20059;-70
2023/03/12 12:07:41;;;;;;;5.30;4.57;;;18.30;52.50;;;;;;3907232;30;20055;-70
2023/03/12 12:10:28;;;;;;;4.55;4.18;;;18.10;52.90;;;;;;3916394;30;20104;-70
2023/03/12 12:13:21;;;;;;;5.03;4.50;;;18.10;53.30;;;;;;3906959;30;20504;-70
2023/03/12 12:16:17;;;;;;;4.72;4.43;;;18.00;53.60;;;;;;3906329;30;20197;-70
2023/03/12 12:19:14;;;;;;;4.88;4.47;;;18.00;54.00;;;;;;3928347;30;20508;-71
2023/03/12 12:22:13;;;;;;;3.75;3.50;;;18.00;53.60;;;;;;3913399;30;20186;-70
2023/03/12 12:25:16;;;;;;;3.22;3.03;;;18.00;53.30;;;;;;3915544;30;20067;-70
2023/03/12 12:28:13;;;;;;;3.05;2.85;;;18.10;53.20;;;;;;3902228;30;20118;-70
2023/03/12 12:31:06;;;;;;;5.45;4.28;;;18.10;52.70;;;;;;3914498;30;20063;-74
2023/03/12 12:34:01;;;;;;;4.80;4.40;;;18.10;52.30;;;;;;3928681;30;20052;-73
2023/03/12 12:36:47;;;;;;;5.05;4.63;;;18.10;52.80;;;;;;3921136;30;20670;-73
2023/03/12 12:39:34;;;;;;;4.40;4.10;;;18.10;52.30;;;;;;3912828;30;20134;-70
2023/03/12 12:42:21;;;;;;;4.72;4.32;;;18.20;53.50;;;;;;3901789;30;20067;-73
2023/03/12 12:45:04;;;;;;;5.13;4.63;;;18.30;53.60;;;;;;3926044;30;20067;-70
2023/03/12 12:47:50;;;;;;;4.93;4.53;;;18.30;54.00;;;;;;3911868;30;20562;-71
2023/03/12 12:50:36;;;;;;;6.05;4.57;;;18.30;54.90;;;;;;3914375;30;20051;-70
2023/03/12 12:53:23;;;;;;;4.65;4.20;;;18.40;55.50;;;;;;3928105;30;20235;-71
2023/03/12 12:56:12;;;;;;;4.75;4.35;;;18.40;55.50;;;;;;3913390;30;20210;-71
2023/03/12 12:59:29;;;;;;;4.38;4.03;;;18.40;55.60;;;;;;3915436;30;20059;-69
2023/03/12 13:02:17;;;;;;;4.80;4.38;;;18.50;55.60;;;;;;3927278;30;20186;-69
2023/03/12 13:05:00;;;;;;;4.63;4.22;;;18.50;55.90;;;;;;3917599;30;20054;-69
2023/03/12 13:07:41;;;;;;;4.97;4.57;;;18.40;55.90;;;;;;3909212;30;20058;-69
2023/03/12 13:10:42;;;;;;;4.85;4.45;;;18.40;56.30;;;;;;3916403;30;20417;-69
2023/03/12 13:13:27;;;;;;;4.78;4.30;;;18.40;56.20;;;;;;3916276;30;20063;-69
2023/03/12 13:16:37;;;;;;;5.00;4.50;;;18.40;56.40;;;;;;3915870;30;20075;-70
2023/03/12 13:19:26;;;;;;;4.85;4.45;;;18.40;56.40;;;;;;3927279;30;20578;-69
2023/03/12 13:22:20;;;;;;;4.65;4.22;;;18.30;56.70;;;;;;3927222;30;20561;-69
2023/03/12 13:25:11;;;;;;;4.43;4.03;;;18.20;57.30;;;;;;3908060;30;20114;-70
2023/03/12 13:27:58;;;;;;;4.63;4.22;;;18.00;57.40;;;;;;3912603;30;20519;-69
2023/03/12 13:30:49;;;;;;;4.88;4.47;;;17.90;57.90;;;;;;3913107;30;20130;-69
2023/03/12 13:33:45;;;;;;;4.93;4.53;;;17.90;58.20;;;;;;3914769;30;20718;-68
2023/03/12 13:36:27;;;;;;;4.60;4.03;;;17.80;58.30;;;;;;3927038;30;20059;-74
2023/03/12 13:39:27;;;;;;;4.93;4.40;;;17.90;58.70;;;;;;3923567;30;20105;-72
2023/03/12 13:42:28;;;;;;;5.90;4.55;;;18.00;58.80;;;;;;3916587;30;20055;-73
2023/03/12 13:45:27;;;;;;;5.07;3.92;;;18.10;58.40;;;;;;3927277;30;20055;-73
2023/03/12 13:48:16;;;;;;;5.40;4.28;;;18.20;58.20;;;;;;3923485;30;20408;-69
2023/03/12 13:50:59;;;;;;;4.25;3.85;;;18.30;57.80;;;;;;3916702;30;20055;-70
2023/03/12 13:53:40;;;;;;;4.70;3.67;;;18.40;57.80;;;;;;3919025;30;20122;-73
2023/03/12 13:56:28;;;;;;;3.95;3.60;;;18.50;57.80;;;;;;3902022;30;20109;-72
2023/03/12 13:59:17;;;;;;;4.65;3.78;;;18.40;57.80;;;;;;3923630;30;20063;-72
2023/03/12 14:02:03;;;;;;;4.32;3.92;;;18.40;57.80;;;;;;3916229;30;20512;-72
2023/03/12 14:04:45;;;;;;;5.30;3.90;;;18.30;58.50;;;;;;3925060;30;20059;-73
2023/03/12 14:07:53;;;;;;;5.63;3.60;;;18.20;58.80;;;;;;3925861;30;20116;-71
2023/03/12 14:10:46;;;;;;;6.32;4.07;;;18.20;59.00;;;;;;3904302;30;20115;-73
2023/03/12 14:13:50;;;;;;;4.43;3.25;;;18.20;59.10;;;;;;3918964;30;20067;-71
2023/03/12 14:16:38;;;;;;;7.97;3.83;;;18.10;59.30;;;;;;3909985;30;20046;-70
2023/03/12 14:19:24;;;;;;;9.95;3.83;;;18.20;59.50;;;;;;3926599;30;20516;-70
2023/03/12 14:22:07;;;;;;;8.50;3.92;;;18.20;59.50;;;;;;3925770;30;20058;-71